sensor_id;sensor_type;location;lat;lon;timestamp;pressure;altitude;pressure_sealevel;temperature;humidity
51229;BME280;37304;52.216;6.874;2023-03-19T00:02:10;100809.25;;;9.38;100.00
51229;BME280;37304;52.216;6.874;2023-03-19T00:07:10;100815.22;;;9.44;100.00
51229;BME280;37304;52.216;6.874;2023-03-19T00:12:10;100826.41;;;9.48;100.00
51229;BME280;37304;52.216;6.874;2023-03-19T00:17:11;100830.69;;;9.52;100.00
51229;BME280;37304;52.216;6.874;2023-03-19T00:22:11;100832.28;;;9.64;100.00
51229;BME280;37304;52.216;6.874;2023-03-19T00:27:11;100819.25;;;9.67;100.00
51229;BME280;37304;52.216;6.874;2023-03-19T00:32:12;100813.19;;;9.68;100.00
51229;BME280;37304;52.216;6.874;2023-03-19T00:37:12;100822.72;;;9.66;100.00
51229;BME280;37304;52.216;6.874;2023-03-19T00:42:12;100821.78;;;9.73;100.00
51229;BME280;37304;52.216;6.874;2023-03-19T00:47:13;100823.44;;;9.77;100.00
51229;BME280;37304;52.216;6.874;2023-03-19T00:52:13;100822.53;;;9.82;100.00
51229;BME280;37304;52.216;6.874;2023-03-19T00:57:14;100819.81;;;9.89;100.00
51229;BME280;37304;52.216;6.874;2023-03-19T01:02:14;100817.09;;;10.00;100.00
51229;BME280;37304;52.216;6.874;2023-03-19T01:07:15;100807.41;;;10.10;100.00
51229;BME280;37304;52.216;6.874;2023-03-19T01:12:15;100800.34;;;10.18;100.00
51229;BME280;37304;52.216;6.874;2023-03-19T01:17:16;100803.03;;;10.14;100.00
51229;BME280;37304;52.216;6.874;2023-03-19T01:22:16;100803.13;;;10.06;100.00
51229;BME280;37304;52.216;6.874;2023-03-19T01:27:17;100799.81;;;9.98;100.00
51229;BME280;37304;52.216;6.874;2023-03-19T01:32:17;100797.28;;;9.91;100.00
51229;BME280;37304;52.216;6.874;2023-03-19T01:37:18;100806.88;;;9.86;100.00
51229;BME280;37304;52.216;6.874;2023-03-19T01:42:19;100804.34;;;9.83;100.00
51229;BME280;37304;52.216;6.874;2023-03-19T01:47:36;100802.69;;;9.77;100.00
51229;BME280;37304;52.216;6.874;2023-03-19T01:52:38;100806.19;;;9.75;100.00
51229;BME280;37304;52.216;6.874;2023-03-19T01:57:38;100801.88;;;9.74;100.00
51229;BME280;37304;52.216;6.874;2023-03-19T02:02:39;100801.84;;;9.75;100.00
51229;BME280;37304;52.216;6.874;2023-03-19T02:07:42;100804.47;;;9.74;100.00
51229;BME280;37304;52.216;6.874;2023-03-19T02:12:44;100798.41;;;9.73;100.00
51229;BME280;37304;52.216;6.874;2023-03-19T02:17:44;100796.72;;;9.71;100.00
51229;BME280;37304;52.216;6.874;2023-03-19T02:22:54;100792.44;;;9.68;100.00
51229;BME280;37304;52.216;6.874;2023-03-19T02:27:59;100795.91;;;9.69;100.00
51229;BME280;37304;52.216;6.874;2023-03-19T02:33:00;100789.03;;;9.63;100.00
51229;BME280;37304;52.216;6.874;2023-03-19T02:38:00;100799.41;;;9.65;100.00
51229;BME280;37304;52.216;6.874;2023-03-19T02:43:02;100798.59;;;9.59;100.00
51229;BME280;37304;52.216;6.874;2023-03-19T02:48:02;100800.34;;;9.57;100.00
51229;BME280;37304;52.216;6.874;2023-03-19T02:53:03;100801.22;;;9.56;100.00
51229;BME280;37304;52.216;6.874;2023-03-19T02:58:03;100799.56;;;9.52;100.00
51229;BME280;37304;52.216;6.874;2023-03-19T03:03:05;100802.16;;;9.52;100.00
51229;BME280;37304;52.216;6.874;2023-03-19T03:08:08;100810.75;;;9.54;100.00
51229;BME280;37304;52.216;6.874;2023-03-19T03:13:08;100815.91;;;9.57;100.00
51229;BME280;37304;52.216;6.874;2023-03-19T03:18:08;100814.19;;;9.58;100.00
51229;BME280;37304;52.216;6.874;2023-03-19T03:23:09;100817.56;;;9.65;100.00
51229;BME280;37304;52.216;6.874;2023-03-19T03:28:10;100827.03;;;9.69;100.00
51229;BME280;37304;52.216;6.874;2023-03-19T03:33:11;100824.41;;;9.70;100.00
51229;BME280;37304;52.216;6.874;2023-03-19T03:38:12;100837.38;;;9.72;100.00
51229;BME280;37304;52.216;6.874;2023-03-19T03:43:12;100832.16;;;9.75;100.00
51229;BME280;37304;52.216;6.874;2023-03-19T03:48:13;100826.13;;;9.73;100.00
51229;BME280;37304;52.216;6.874;2023-03-19T03:53:14;100826.06;;;9.76;100.00
51229;BME280;37304;52.216;6.874;2023-03-19T03:58:15;100832.16;;;9.75;100.00
51229;BME280;37304;52.216;6.874;2023-03-19T04:03:15;100838.22;;;9.72;100.00
51229;BME280;37304;52.216;6.874;2023-03-19T04:08:16;100834.78;;;9.72;100.00
51229;BME280;37304;52.216;6.874;2023-03-19T04:13:17;100831.34;;;9.68;100.00
51229;BME280;37304;52.216;6.874;2023-03-19T04:18:17;100830.56;;;9.65;100.00
51229;BME280;37304;52.216;6.874;2023-03-19T04:23:17;100827.16;;;9.56;100.00
51229;BME280;37304;52.216;6.874;2023-03-19T04:28:18;100824.63;;;9.53;100.00
51229;BME280;37304;52.216;6.874;2023-03-19T04:33:18;100835.00;;;9.53;100.00
51229;BME280;37304;52.216;6.874;2023-03-19T04:38:18;100839.31;;;9.54;100.00
51229;BME280;37304;52.216;6.874;2023-03-19T04:43:19;100846.16;;;9.58;100.00
51229;BME280;37304;52.216;6.874;2023-03-19T04:48:19;100846.16;;;9.58;100.00
51229;BME280;37304;52.216;6.874;2023-03-19T04:53:20;100851.31;;;9.63;100.00
51229;BME280;37304;52.216;6.874;2023-03-19T04:58:20;100853.88;;;9.68;100.00
51229;BME280;37304;52.216;6.874;2023-03-19T05:03:21;100852.09;;;9.70;100.00
51229;BME280;37304;52.216;6.874;2023-03-19T05:08:21;100858.13;;;9.70;100.00
51229;BME280;37304;52.216;6.874;2023-03-19T05:13:21;100851.22;;;9.69;100.00
51229;BME280;37304;52.216;6.874;2023-03-19T05:18:22;100857.25;;;9.71;100.00
51229;BME280;37304;52.216;6.874;2023-03-19T05:23:22;100855.59;;;9.69;100.00
51229;BME280;37304;52.216;6.874;2023-03-19T05:28:23;100855.66;;;9.63;100.00
51229;BME280;37304;52.216;6.874;2023-03-19T05:33:23;100855.66;;;9.63;100.00
51229;BME280;37304;52.216;6.874;2023-03-19T05:38:23;100854.81;;;9.59;100.00
51229;BME280;37304;52.216;6.874;2023-03-19T05:43:24;100860.06;;;9.56;100.00
51229;BME280;37304;52.216;6.874;2023-03-19T05:48:24;100860.91;;;9.56;100.00
51229;BME280;37304;52.216;6.874;2023-03-19T05:53:25;100870.44;;;9.54;100.00
51229;BME280;37304;52.216;6.874;2023-03-19T05:58:26;100882.56;;;9.52;100.00
51229;BME280;37304;52.216;6.874;2023-03-19T06:03:27;100890.34;;;9.54;100.00
51229;BME280;37304;52.216;6.874;2023-03-19T06:08:27;100895.53;;;9.52;100.00
51229;BME280;37304;52.216;6.874;2023-03-19T06:13:28;100892.97;;;9.49;100.00
51229;BME280;37304;52.216;6.874;2023-03-19T06:18:28;100897.34;;;9.47;100.00
51229;BME280;37304;52.216;6.874;2023-03-19T06:23:29;100908.56;;;9.49;100.00
51229;BME280;37304;52.216;6.874;2023-03-19T06:28:29;100919.75;;;9.51;100.00
51229;BME280;37304;52.216;6.874;2023-03-19T06:33:29;100912.03;;;9.48;100.00
51229;BME280;37304;52.216;6.874;2023-03-19T06:38:31;100910.38;;;9.41;100.00
51229;BME280;37304;52.216;6.874;2023-03-19T06:43:31;100919.00;;;9.44;100.00
51229;BME280;37304;52.216;6.874;2023-03-19T06:48:35;100932.81;;;9.45;100.00
51229;BME280;37304;52.216;6.874;2023-03-19T06:53:36;100941.47;;;9.45;100.00
51229;BME280;37304;52.216;6.874;2023-03-19T06:58:36;100940.59;;;9.46;100.00
51229;BME280;37304;52.216;6.874;2023-03-19T07:03:37;100943.16;;;9.48;100.00
51229;BME280;37304;52.216;6.874;2023-03-19T07:08:37;100955.94;;;9.65;100.00
51229;BME280;37304;52.216;6.874;2023-03-19T07:13:37;100967.16;;;9.67;100.00
51229;BME280;37304;52.216;6.874;2023-03-19T07:18:38;100967.00;;;9.83;100.00
51229;BME280;37304;52.216;6.874;2023-03-19T07:23:38;100978.81;;;10.09;100.00
51229;BME280;37304;52.216;6.874;2023-03-19T07:28:39;100973.44;;;10.23;100.00
51229;BME280;37304;52.216;6.874;2023-03-19T07:33:39;100971.72;;;10.22;100.00
51229;BME280;37304;52.216;6.874;2023-03-19T07:38:40;100971.78;;;10.15;100.00
51229;BME280;37304;52.216;6.874;2023-03-19T07:43:40;100980.41;;;10.19;100.00
51229;BME280;37304;52.216;6.874;2023-03-19T07:48:40;100971.75;;;10.18;100.00
51229;BME280;37304;52.216;6.874;2023-03-19T07:53:41;100982.97;;;10.22;100.00
51229;BME280;37304;52.216;6.874;2023-03-19T07:58:41;100983.78;;;10.26;100.00
51229;BME280;37304;52.216;6.874;2023-03-19T08:03:41;100985.53;;;10.24;100.00
51229;BME280;37304;52.216;6.874;2023-03-19T08:08:42;100988.00;;;10.34;100.00
51229;BME280;37304;52.216;6.874;2023-03-19T08:13:42;100983.50;;;10.49;100.00
51229;BME280;37304;52.216;6.874;2023-03-19T08:18:42;100987.56;;;10.69;100.00
51229;BME280;37304;52.216;6.874;2023-03-19T08:23:43;100988.47;;;10.68;100.00
51229;BME280;37304;52.216;6.874;2023-03-19T08:28:43;100984.75;;;10.83;100.00
51229;BME280;37304;52.216;6.874;2023-03-19T08:33:44;100989.78;;;10.93;100.00
51229;BME280;37304;52.216;6.874;2023-03-19T08:38:44;100989.13;;;11.81;100.00
51229;BME280;37304;52.216;6.874;2023-03-19T08:43:45;100996.81;;;11.87;100.00
51229;BME280;37304;52.216;6.874;2023-03-19T08:48:45;100998.53;;;11.88;100.00
51229;BME280;37304;52.216;6.874;2023-03-19T08:53:46;101004.22;;;11.63;100.00
51229;BME280;37304;52.216;6.874;2023-03-19T08:58:46;101018.28;;;11.53;100.00
51229;BME280;37304;52.216;6.874;2023-03-19T09:03:47;101017.75;;;11.34;100.00
51229;BME280;37304;52.216;6.874;2023-03-19T09:08:47;101025.81;;;11.69;100.00
51229;BME280;37304;52.216;6.874;2023-03-19T09:13:48;101025.31;;;12.80;100.00
51229;BME280;37304;52.216;6.874;2023-03-19T09:18:48;101024.19;;;12.52;100.00
51229;BME280;37304;52.216;6.874;2023-03-19T09:23:49;101025.28;;;12.42;100.00
51229;BME280;37304;52.216;6.874;2023-03-19T09:28:49;101038.50;;;13.48;100.00
51229;BME280;37304;52.216;6.874;2023-03-19T09:33:50;101038.25;;;12.85;100.00
51229;BME280;37304;52.216;6.874;2023-03-19T09:38:51;101047.69;;;12.90;100.00
51229;BME280;37304;52.216;6.874;2023-03-19T09:44:25;101054.94;;;13.51;100.00
51229;BME280;37304;52.216;6.874;2023-03-19T09:49:29;101055.69;;;13.57;100.00
51229;BME280;37304;52.216;6.874;2023-03-19T09:54:46;101053.81;;;13.62;100.00
51229;BME280;37304;52.216;6.874;2023-03-19T09:59:54;101057.41;;;13.58;100.00
51229;BME280;37304;52.216;6.874;2023-03-19T10:15:58;101061.78;;;15.90;100.00
51229;BME280;37304;52.216;6.874;2023-03-19T10:26:05;101048.19;;;18.22;100.00
51229;BME280;37304;52.216;6.874;2023-03-19T10:36:45;101054.84;;;18.86;100.00
51229;BME280;37304;52.216;6.874;2023-03-19T11:01:43;101069.25;;;20.20;100.00
51229;BME280;37304;52.216;6.874;2023-03-19T11:06:51;101066.16;;;20.77;100.00
51229;BME280;37304;52.216;6.874;2023-03-19T11:11:56;101058.69;;;22.77;90.14
51229;BME280;37304;52.216;6.874;2023-03-19T11:17:01;101066.19;;;20.93;92.77
51229;BME280;37304;52.216;6.874;2023-03-19T11:22:13;101069.03;;;19.73;98.46
51229;BME280;37304;52.216;6.874;2023-03-19T11:27:15;101077.22;;;21.00;97.31
51229;BME280;37304;52.216;6.874;2023-03-19T11:32:29;101069.72;;;20.76;91.43
51229;BME280;37304;52.216;6.874;2023-03-19T12:07:43;101047.22;;;22.77;67.39
51229;BME280;37304;52.216;6.874;2023-03-19T12:18:36;101035.94;;;25.40;54.94
51229;BME280;37304;52.216;6.874;2023-03-19T12:23:44;101031.63;;;28.43;50.60
51229;BME280;37304;52.216;6.874;2023-03-19T12:34:37;101035.09;;;28.14;45.01
51229;BME280;37304;52.216;6.874;2023-03-19T12:39:47;101041.00;;;25.32;49.63
51229;BME280;37304;52.216;6.874;2023-03-19T12:44:54;101037.16;;;22.69;56.36
51229;BME280;37304;52.216;6.874;2023-03-19T12:50:04;101050.19;;;19.99;67.21
51229;BME280;37304;52.216;6.874;2023-03-19T12:55:32;101049.75;;;19.38;76.73
51229;BME280;37304;52.216;6.874;2023-03-19T13:01:06;101050.13;;;20.64;72.34
51229;BME280;37304;52.216;6.874;2023-03-19T13:06:19;101056.69;;;19.74;74.88
51229;BME280;37304;52.216;6.874;2023-03-19T13:17:13;101061.03;;;17.88;86.25
51229;BME280;37304;52.216;6.874;2023-03-19T13:22:20;101051.63;;;20.04;76.54
51229;BME280;37304;52.216;6.874;2023-03-19T13:27:27;101042.53;;;21.82;72.54
51229;BME280;37304;52.216;6.874;2023-03-19T13:37:54;101035.06;;;21.29;65.51
51229;BME280;37304;52.216;6.874;2023-03-19T13:42:58;101043.16;;;21.57;65.80
51229;BME280;37304;52.216;6.874;2023-03-19T14:10:11;101030.69;;;20.01;72.71
51229;BME280;37304;52.216;6.874;2023-03-19T14:25:20;101058.03;;;17.56;90.30
51229;BME280;37304;52.216;6.874;2023-03-19T14:30:43;101061.91;;;17.47;94.43
51229;BME280;37304;52.216;6.874;2023-03-19T14:41:20;101060.72;;;16.89;100.00
51229;BME280;37304;52.216;6.874;2023-03-19T14:46:40;101050.63;;;17.02;97.79
51229;BME280;37304;52.216;6.874;2023-03-19T14:51:59;101066.63;;;16.72;100.00
51229;BME280;37304;52.216;6.874;2023-03-19T14:57:19;101066.25;;;16.35;100.00
51229;BME280;37304;52.216;6.874;2023-03-19T15:02:38;101065.94;;;16.21;100.00
51229;BME280;37304;52.216;6.874;2023-03-19T15:07:43;101065.84;;;16.22;100.00
51229;BME280;37304;52.216;6.874;2023-03-19T15:18:14;101069.25;;;15.75;100.00
51229;BME280;37304;52.216;6.874;2023-03-19T15:23:20;101075.13;;;15.56;100.00
51229;BME280;37304;52.216;6.874;2023-03-19T15:28:29;101080.66;;;15.47;100.00
51229;BME280;37304;52.216;6.874;2023-03-19T15:33:49;101099.75;;;15.24;100.00
51229;BME280;37304;52.216;6.874;2023-03-19T15:39:10;101109.09;;;15.04;100.00
51229;BME280;37304;52.216;6.874;2023-03-19T15:44:29;101105.69;;;15.02;100.00
51229;BME280;37304;52.216;6.874;2023-03-19T15:49:43;101108.75;;;14.87;100.00
51229;BME280;37304;52.216;6.874;2023-03-19T15:54:51;101113.28;;;14.50;100.00
51229;BME280;37304;52.216;6.874;2023-03-19T16:00:01;101124.09;;;14.37;100.00
51229;BME280;37304;52.216;6.874;2023-03-19T16:05:01;101123.09;;;14.41;100.00
51229;BME280;37304;52.216;6.874;2023-03-19T16:15:41;101115.78;;;14.23;100.00
51229;BME280;37304;52.216;6.874;2023-03-19T16:20:43;101128.19;;;14.15;100.00
51229;BME280;37304;52.216;6.874;2023-03-19T16:25:46;101133.94;;;13.94;100.00
51229;BME280;37304;52.216;6.874;2023-03-19T16:30:47;101144.25;;;14.01;100.00
51229;BME280;37304;52.216;6.874;2023-03-19T16:35:50;101151.09;;;14.05;100.00
51229;BME280;37304;52.216;6.874;2023-03-19T16:41:22;101160.97;;;13.93;100.00
51229;BME280;37304;52.216;6.874;2023-03-19T16:46:25;101162.13;;;13.81;100.00
51229;BME280;37304;52.216;6.874;2023-03-19T16:51:27;101168.50;;;13.71;100.00
51229;BME280;37304;52.216;6.874;2023-03-19T16:56:28;101163.31;;;13.69;100.00
51229;BME280;37304;52.216;6.874;2023-03-19T17:01:36;101175.91;;;13.52;100.00
51229;BME280;37304;52.216;6.874;2023-03-19T17:06:37;101172.28;;;13.18;100.00
51229;BME280;37304;52.216;6.874;2023-03-19T17:11:39;101192.88;;;12.90;100.00
51229;BME280;37304;52.216;6.874;2023-03-19T17:16:44;101211.66;;;12.65;100.00
51229;BME280;37304;52.216;6.874;2023-03-19T17:21:52;101217.94;;;12.55;100.00
51229;BME280;37304;52.216;6.874;2023-03-19T17:26:56;101232.59;;;12.10;100.00
51229;BME280;37304;52.216;6.874;2023-03-19T17:31:59;101233.81;;;11.86;100.00
51229;BME280;37304;52.216;6.874;2023-03-19T17:37:05;101241.78;;;11.78;100.00
51229;BME280;37304;52.216;6.874;2023-03-19T17:42:28;101250.81;;;11.52;100.00
51229;BME280;37304;52.216;6.874;2023-03-19T17:47:29;101261.25;;;11.49;100.00
51229;BME280;37304;52.216;6.874;2023-03-19T17:52:33;101275.41;;;11.31;100.00
51229;BME280;37304;52.216;6.874;2023-03-19T17:57:37;101300.66;;;11.19;100.00
51229;BME280;37304;52.216;6.874;2023-03-19T18:02:38;101313.81;;;11.09;100.00
51229;BME280;37304;52.216;6.874;2023-03-19T18:07:45;101314.09;;;10.82;100.00
51229;BME280;37304;52.216;6.874;2023-03-19T18:12:55;101321.31;;;10.51;100.00
51229;BME280;37304;52.216;6.874;2023-03-19T18:18:01;101320.59;;;10.30;100.00
51229;BME280;37304;52.216;6.874;2023-03-19T18:23:04;101325.00;;;10.15;100.00
51229;BME280;37304;52.216;6.874;2023-03-19T18:28:04;101335.47;;;10.04;100.00
51229;BME280;37304;52.216;6.874;2023-03-19T18:33:14;101336.28;;;10.13;100.00
51229;BME280;37304;52.216;6.874;2023-03-19T18:38:20;101357.09;;;10.10;100.00
51229;BME280;37304;52.216;6.874;2023-03-19T18:43:21;101351.03;;;10.06;100.00
51229;BME280;37304;52.216;6.874;2023-03-19T18:48:26;101357.09;;;10.05;100.00
51229;BME280;37304;52.216;6.874;2023-03-19T18:53:28;101357.91;;;10.13;100.00
51229;BME280;37304;52.216;6.874;2023-03-19T18:58:29;101357.13;;;10.03;100.00
51229;BME280;37304;52.216;6.874;2023-03-19T19:03:33;101366.69;;;9.92;100.00
51229;BME280;37304;52.216;6.874;2023-03-19T19:08:40;101370.19;;;9.85;100.00
51229;BME280;37304;52.216;6.874;2023-03-19T19:13:44;101372.88;;;9.71;100.00
51229;BME280;37304;52.216;6.874;2023-03-19T19:18:49;101378.13;;;9.54;100.00
51229;BME280;37304;52.216;6.874;2023-03-19T19:23:58;101383.38;;;9.37;100.00
51229;BME280;37304;52.216;6.874;2023-03-19T19:29:26;101397.19;;;9.39;100.00
51229;BME280;37304;52.216;6.874;2023-03-19T19:34:28;101409.34;;;9.24;100.00
51229;BME280;37304;52.216;6.874;2023-03-19T19:39:39;101417.13;;;9.18;100.00
51229;BME280;37304;52.216;6.874;2023-03-19T19:44:43;101428.38;;;9.15;100.00
51229;BME280;37304;52.216;6.874;2023-03-19T19:49:47;101425.75;;;9.15;100.00
51229;BME280;37304;52.216;6.874;2023-03-19T19:54:47;101438.72;;;9.29;100.00
51229;BME280;37304;52.216;6.874;2023-03-19T19:59:49;101441.28;;;9.39;100.00
51229;BME280;37304;52.216;6.874;2023-03-19T20:04:50;101442.16;;;9.45;100.00
51229;BME280;37304;52.216;6.874;2023-03-19T20:10:00;101446.47;;;9.46;100.00
51229;BME280;37304;52.216;6.874;2023-03-19T20:15:00;101452.50;;;9.56;100.00
51229;BME280;37304;52.216;6.874;2023-03-19T20:20:01;101442.97;;;9.58;100.00
51229;BME280;37304;52.216;6.874;2023-03-19T20:25:01;101446.47;;;9.48;100.00
51229;BME280;37304;52.216;6.874;2023-03-19T20:30:05;101448.22;;;9.47;100.00
51229;BME280;37304;52.216;6.874;2023-03-19T20:35:17;101444.72;;;9.50;100.00
51229;BME280;37304;52.216;6.874;2023-03-19T20:40:25;101450.78;;;9.46;100.00
51229;BME280;37304;52.216;6.874;2023-03-19T20:45:37;101463.78;;;9.43;100.00
51229;BME280;37304;52.216;6.874;2023-03-19T20:50:41;101451.66;;;9.45;100.00
51229;BME280;37304;52.216;6.874;2023-03-19T20:55:42;101457.72;;;9.44;100.00
51229;BME280;37304;52.216;6.874;2023-03-19T21:00:44;101449.06;;;9.50;100.00
51229;BME280;37304;52.216;6.874;2023-03-19T21:05:44;101450.81;;;9.47;100.00
51229;BME280;37304;52.216;6.874;2023-03-19T21:10:46;101451.66;;;9.45;100.00
51229;BME280;37304;52.216;6.874;2023-03-19T21:15:48;101457.75;;;9.36;100.00
51229;BME280;37304;52.216;6.874;2023-03-19T21:20:49;101461.19;;;9.37;100.00
51229;BME280;37304;52.216;6.874;2023-03-19T21:25:53;101465.50;;;9.42;100.00
51229;BME280;37304;52.216;6.874;2023-03-19T21:30:56;101468.09;;;9.41;100.00
51229;BME280;37304;52.216;6.874;2023-03-19T21:35:58;101476.75;;;9.44;100.00
51229;BME280;37304;52.216;6.874;2023-03-19T21:41:02;101472.41;;;9.50;100.00
51229;BME280;37304;52.216;6.874;2023-03-19T21:46:05;101469.81;;;9.50;100.00
51229;BME280;37304;52.216;6.874;2023-03-19T21:51:06;101469.81;;;9.51;100.00
51229;BME280;37304;52.216;6.874;2023-03-19T21:56:13;101463.75;;;9.52;100.00
51229;BME280;37304;52.216;6.874;2023-03-19T22:01:19;101472.41;;;9.48;100.00
51229;BME280;37304;52.216;6.874;2023-03-19T22:06:19;101469.81;;;9.50;100.00
51229;BME280;37304;52.216;6.874;2023-03-19T22:11:31;101476.75;;;9.40;100.00
51229;BME280;37304;52.216;6.874;2023-03-19T22:16:33;101477.66;;;9.31;100.00
51229;BME280;37304;52.216;6.874;2023-03-19T22:21:34;101484.53;;;9.30;100.00
51229;BME280;37304;52.216;6.874;2023-03-19T22:26:37;101486.28;;;9.28;100.00
51229;BME280;37304;52.216;6.874;2023-03-19T22:31:39;101489.75;;;9.21;100.00
51229;BME280;37304;52.216;6.874;2023-03-19T22:36:40;101492.34;;;9.27;100.00
51229;BME280;37304;52.216;6.874;2023-03-19T22:41:44;101493.19;;;9.26;100.00
51229;BME280;37304;52.216;6.874;2023-03-19T22:46:45;101494.94;;;9.29;100.00
51229;BME280;37304;52.216;6.874;2023-03-19T22:51:46;101491.47;;;9.28;100.00
51229;BME280;37304;52.216;6.874;2023-03-19T22:56:48;101497.50;;;9.26;100.00
51229;BME280;37304;52.216;6.874;2023-03-19T23:01:49;101503.56;;;9.20;100.00
51229;BME280;37304;52.216;6.874;2023-03-19T23:06:51;101504.41;;;9.24;100.00
51229;BME280;37304;52.216;6.874;2023-03-19T23:11:52;101513.94;;;9.18;100.00
51229;BME280;37304;52.216;6.874;2023-03-19T23:16:53;101522.59;;;9.14;100.00
51229;BME280;37304;52.216;6.874;2023-03-19T23:21:54;101532.09;;;9.17;100.00
51229;BME280;37304;52.216;6.874;2023-03-19T23:26:58;101520.88;;;9.15;100.00
51229;BME280;37304;52.216;6.874;2023-03-19T23:31:59;101520.00;;;9.11;100.00
51229;BME280;37304;52.216;6.874;2023-03-19T23:36:59;101534.69;;;9.03;100.00
51229;BME280;37304;52.216;6.874;2023-03-19T23:41:59;101536.44;;;9.06;100.00
51229;BME280;37304;52.216;6.874;2023-03-19T23:47:01;101530.38;;;9.03;100.00
51229;BME280;37304;52.216;6.874;2023-03-19T23:52:04;101532.09;;;9.09;100.00
51229;BME280;37304;52.216;6.874;2023-03-19T23:57:07;101538.16;;;9.07;100.00
